sensor_id;sensor_type;location;lat;lon;timestamp;P1;durP1;ratioP1;P2;durP2;ratioP2
56114;SDS011;41988;53.020;6.576;2022-12-24T00:02:07;54.00;;;19.67;;
56114;SDS011;41988;53.020;6.576;2022-12-24T00:04:51;47.40;;;18.65;;
56114;SDS011;41988;53.020;6.576;2022-12-24T00:07:36;58.55;;;20.15;;
56114;SDS011;41988;53.020;6.576;2022-12-24T00:10:20;52.33;;;18.60;;
56114;SDS011;41988;53.020;6.576;2022-12-24T00:13:05;56.97;;;20.00;;
56114;SDS011;41988;53.020;6.576;2022-12-24T00:15:49;54.13;;;19.95;;
56114;SDS011;41988;53.020;6.576;2022-12-24T00:18:34;65.32;;;21.38;;
56114;SDS011;41988;53.020;6.576;2022-12-24T00:21:19;62.97;;;19.75;;
56114;SDS011;41988;53.020;6.576;2022-12-24T00:24:04;48.85;;;18.85;;
56114;SDS011;41988;53.020;6.576;2022-12-24T00:26:48;60.97;;;20.42;;
56114;SDS011;41988;53.020;6.576;2022-12-24T00:29:33;63.15;;;21.80;;
56114;SDS011;41988;53.020;6.576;2022-12-24T00:32:17;78.22;;;22.70;;
56114;SDS011;41988;53.020;6.576;2022-12-24T00:35:02;76.07;;;22.38;;
56114;SDS011;41988;53.020;6.576;2022-12-24T00:37:47;68.25;;;20.48;;
56114;SDS011;41988;53.020;6.576;2022-12-24T00:40:32;82.07;;;23.13;;
56114;SDS011;41988;53.020;6.576;2022-12-24T00:43:16;60.03;;;19.90;;
56114;SDS011;41988;53.020;6.576;2022-12-24T00:46:01;63.70;;;19.30;;
56114;SDS011;41988;53.020;6.576;2022-12-24T00:48:45;68.45;;;21.55;;
56114;SDS011;41988;53.020;6.576;2022-12-24T00:51:30;61.13;;;19.67;;
56114;SDS011;41988;53.020;6.576;2022-12-24T00:54:15;65.47;;;20.15;;
56114;SDS011;41988;53.020;6.576;2022-12-24T00:57:00;67.63;;;19.90;;
56114;SDS011;41988;53.020;6.576;2022-12-24T00:59:44;71.25;;;20.63;;
56114;SDS011;41988;53.020;6.576;2022-12-24T01:02:29;94.75;;;23.70;;
56114;SDS011;41988;53.020;6.576;2022-12-24T01:05:13;71.07;;;20.95;;
56114;SDS011;41988;53.020;6.576;2022-12-24T01:07:58;72.20;;;20.63;;
56114;SDS011;41988;53.020;6.576;2022-12-24T01:10:43;62.25;;;20.45;;
56114;SDS011;41988;53.020;6.576;2022-12-24T01:13:27;98.70;;;24.30;;
56114;SDS011;41988;53.020;6.576;2022-12-24T01:16:17;87.43;;;24.23;;
56114;SDS011;41988;53.020;6.576;2022-12-24T01:19:02;63.90;;;22.30;;
56114;SDS011;41988;53.020;6.576;2022-12-24T01:21:47;98.00;;;23.75;;
56114;SDS011;41988;53.020;6.576;2022-12-24T01:24:31;88.22;;;23.23;;
56114;SDS011;41988;53.020;6.576;2022-12-24T01:27:16;81.22;;;23.85;;
56114;SDS011;41988;53.020;6.576;2022-12-24T01:30:01;103.85;;;23.52;;
56114;SDS011;41988;53.020;6.576;2022-12-24T01:32:45;88.78;;;23.98;;
56114;SDS011;41988;53.020;6.576;2022-12-24T01:35:30;81.93;;;23.10;;
56114;SDS011;41988;53.020;6.576;2022-12-24T01:38:14;93.72;;;22.83;;
56114;SDS011;41988;53.020;6.576;2022-12-24T01:40:59;69.25;;;21.25;;
56114;SDS011;41988;53.020;6.576;2022-12-24T01:44:15;86.05;;;23.50;;
56114;SDS011;41988;53.020;6.576;2022-12-24T01:49:56;114.78;;;26.20;;
56114;SDS011;41988;53.020;6.576;2022-12-24T01:52:43;75.00;;;23.23;;
56114;SDS011;41988;53.020;6.576;2022-12-24T01:55:27;88.00;;;24.17;;
56114;SDS011;41988;53.020;6.576;2022-12-24T01:58:13;69.75;;;22.02;;
56114;SDS011;41988;53.020;6.576;2022-12-24T02:00:59;92.90;;;24.40;;
56114;SDS011;41988;53.020;6.576;2022-12-24T02:03:43;88.07;;;24.38;;
56114;SDS011;41988;53.020;6.576;2022-12-24T02:06:28;78.38;;;24.42;;
56114;SDS011;41988;53.020;6.576;2022-12-24T02:09:12;68.80;;;23.67;;
56114;SDS011;41988;53.020;6.576;2022-12-24T02:11:57;90.43;;;26.50;;
56114;SDS011;41988;53.020;6.576;2022-12-24T02:14:42;74.40;;;24.33;;
56114;SDS011;41988;53.020;6.576;2022-12-24T02:34:47;63.92;;;21.95;;
56114;SDS011;41988;53.020;6.576;2022-12-24T02:37:50;65.43;;;21.10;;
56114;SDS011;41988;53.020;6.576;2022-12-24T02:40:38;54.15;;;20.00;;
56114;SDS011;41988;53.020;6.576;2022-12-24T02:43:31;55.00;;;19.73;;
56114;SDS011;41988;53.020;6.576;2022-12-24T02:46:22;52.90;;;21.08;;
56114;SDS011;41988;53.020;6.576;2022-12-24T02:49:10;49.85;;;19.10;;
56114;SDS011;41988;53.020;6.576;2022-12-24T02:51:55;55.85;;;19.00;;
56114;SDS011;41988;53.020;6.576;2022-12-24T02:54:39;46.33;;;16.95;;
56114;SDS011;41988;53.020;6.576;2022-12-24T02:57:29;41.35;;;16.17;;
56114;SDS011;41988;53.020;6.576;2022-12-24T03:00:18;52.20;;;17.98;;
56114;SDS011;41988;53.020;6.576;2022-12-24T03:03:11;40.15;;;16.27;;
56114;SDS011;41988;53.020;6.576;2022-12-24T03:09:23;39.03;;;14.65;;
56114;SDS011;41988;53.020;6.576;2022-12-24T03:12:11;33.83;;;13.38;;
56114;SDS011;41988;53.020;6.576;2022-12-24T03:14:59;40.03;;;13.52;;
56114;SDS011;41988;53.020;6.576;2022-12-24T03:17:45;32.13;;;11.95;;
56114;SDS011;41988;53.020;6.576;2022-12-24T03:20:40;32.80;;;11.65;;
56114;SDS011;41988;53.020;6.576;2022-12-24T03:23:25;43.55;;;11.93;;
56114;SDS011;41988;53.020;6.576;2022-12-24T03:26:10;33.92;;;10.30;;
56114;SDS011;41988;53.020;6.576;2022-12-24T03:28:56;30.83;;;10.20;;
56114;SDS011;41988;53.020;6.576;2022-12-24T03:31:44;39.33;;;8.90;;
56114;SDS011;41988;53.020;6.576;2022-12-24T03:34:33;38.10;;;9.23;;
56114;SDS011;41988;53.020;6.576;2022-12-24T03:37:18;34.60;;;7.47;;
56114;SDS011;41988;53.020;6.576;2022-12-24T03:40:04;39.05;;;7.55;;
56114;SDS011;41988;53.020;6.576;2022-12-24T03:42:49;39.80;;;6.38;;
56114;SDS011;41988;53.020;6.576;2022-12-24T03:45:33;37.97;;;8.57;;
56114;SDS011;41988;53.020;6.576;2022-12-24T03:48:18;47.80;;;6.88;;
56114;SDS011;41988;53.020;6.576;2022-12-24T03:51:02;36.83;;;6.25;;
56114;SDS011;41988;53.020;6.576;2022-12-24T03:53:47;30.33;;;6.70;;
56114;SDS011;41988;53.020;6.576;2022-12-24T03:56:32;34.75;;;6.55;;
56114;SDS011;41988;53.020;6.576;2022-12-24T03:59:17;38.75;;;7.50;;
56114;SDS011;41988;53.020;6.576;2022-12-24T04:02:01;44.55;;;5.60;;
56114;SDS011;41988;53.020;6.576;2022-12-24T04:04:45;49.75;;;8.27;;
56114;SDS011;41988;53.020;6.576;2022-12-24T04:07:31;40.25;;;6.63;;
56114;SDS011;41988;53.020;6.576;2022-12-24T04:10:15;34.85;;;5.50;;
56114;SDS011;41988;53.020;6.576;2022-12-24T04:13:00;40.75;;;5.30;;
56114;SDS011;41988;53.020;6.576;2022-12-24T04:15:44;48.55;;;5.30;;
56114;SDS011;41988;53.020;6.576;2022-12-24T04:18:29;43.05;;;6.00;;
56114;SDS011;41988;53.020;6.576;2022-12-24T04:21:14;46.85;;;6.03;;
56114;SDS011;41988;53.020;6.576;2022-12-24T04:23:59;41.72;;;5.78;;
56114;SDS011;41988;53.020;6.576;2022-12-24T04:26:43;32.67;;;5.72;;
56114;SDS011;41988;53.020;6.576;2022-12-24T04:29:27;38.97;;;6.35;;
56114;SDS011;41988;53.020;6.576;2022-12-24T04:32:12;42.60;;;5.63;;
56114;SDS011;41988;53.020;6.576;2022-12-24T04:34:56;38.17;;;4.97;;
56114;SDS011;41988;53.020;6.576;2022-12-24T04:37:41;45.28;;;6.30;;
56114;SDS011;41988;53.020;6.576;2022-12-24T04:40:25;51.17;;;8.40;;
56114;SDS011;41988;53.020;6.576;2022-12-24T04:43:10;38.53;;;4.78;;
56114;SDS011;41988;53.020;6.576;2022-12-24T04:45:54;34.00;;;6.45;;
56114;SDS011;41988;53.020;6.576;2022-12-24T04:48:40;34.10;;;5.63;;
56114;SDS011;41988;53.020;6.576;2022-12-24T04:51:25;40.45;;;6.13;;
56114;SDS011;41988;53.020;6.576;2022-12-24T04:54:10;41.38;;;7.20;;
56114;SDS011;41988;53.020;6.576;2022-12-24T04:56:54;44.17;;;5.97;;
56114;SDS011;41988;53.020;6.576;2022-12-24T04:59:38;52.58;;;6.43;;
56114;SDS011;41988;53.020;6.576;2022-12-24T05:02:23;41.67;;;6.40;;
56114;SDS011;41988;53.020;6.576;2022-12-24T05:05:08;38.47;;;7.85;;
56114;SDS011;41988;53.020;6.576;2022-12-24T05:07:53;34.95;;;5.20;;
56114;SDS011;41988;53.020;6.576;2022-12-24T05:10:37;53.75;;;6.55;;
56114;SDS011;41988;53.020;6.576;2022-12-24T05:13:23;32.47;;;6.75;;
56114;SDS011;41988;53.020;6.576;2022-12-24T05:16:08;43.53;;;6.50;;
56114;SDS011;41988;53.020;6.576;2022-12-24T05:18:52;44.75;;;5.15;;
56114;SDS011;41988;53.020;6.576;2022-12-24T05:21:37;50.03;;;7.00;;
56114;SDS011;41988;53.020;6.576;2022-12-24T05:24:21;46.70;;;6.18;;
56114;SDS011;41988;53.020;6.576;2022-12-24T05:27:24;49.17;;;9.27;;
56114;SDS011;41988;53.020;6.576;2022-12-24T05:30:09;48.30;;;7.57;;
56114;SDS011;41988;53.020;6.576;2022-12-24T05:32:54;47.30;;;7.13;;
56114;SDS011;41988;53.020;6.576;2022-12-24T05:35:38;51.40;;;6.72;;
56114;SDS011;41988;53.020;6.576;2022-12-24T05:38:23;45.90;;;6.43;;
56114;SDS011;41988;53.020;6.576;2022-12-24T05:41:07;51.30;;;7.35;;
56114;SDS011;41988;53.020;6.576;2022-12-24T05:43:52;50.53;;;7.03;;
56114;SDS011;41988;53.020;6.576;2022-12-24T05:46:36;43.63;;;6.97;;
56114;SDS011;41988;53.020;6.576;2022-12-24T05:49:20;61.92;;;9.18;;
56114;SDS011;41988;53.020;6.576;2022-12-24T05:52:05;47.30;;;5.82;;
56114;SDS011;41988;53.020;6.576;2022-12-24T05:54:49;53.47;;;7.03;;
56114;SDS011;41988;53.020;6.576;2022-12-24T05:57:34;56.03;;;8.02;;
56114;SDS011;41988;53.020;6.576;2022-12-24T06:00:19;35.13;;;5.30;;
56114;SDS011;41988;53.020;6.576;2022-12-24T06:03:03;35.17;;;6.00;;
56114;SDS011;41988;53.020;6.576;2022-12-24T06:05:48;35.72;;;7.10;;
56114;SDS011;41988;53.020;6.576;2022-12-24T06:08:50;33.92;;;5.53;;
56114;SDS011;41988;53.020;6.576;2022-12-24T06:11:35;48.65;;;7.13;;
56114;SDS011;41988;53.020;6.576;2022-12-24T06:14:20;45.70;;;7.93;;
56114;SDS011;41988;53.020;6.576;2022-12-24T06:17:04;52.50;;;7.65;;
56114;SDS011;41988;53.020;6.576;2022-12-24T06:19:49;49.40;;;9.07;;
56114;SDS011;41988;53.020;6.576;2022-12-24T06:22:33;41.28;;;6.22;;
56114;SDS011;41988;53.020;6.576;2022-12-24T06:25:18;39.22;;;6.15;;
56114;SDS011;41988;53.020;6.576;2022-12-24T06:28:02;51.42;;;9.27;;
56114;SDS011;41988;53.020;6.576;2022-12-24T06:30:47;48.42;;;8.95;;
56114;SDS011;41988;53.020;6.576;2022-12-24T06:33:33;50.83;;;6.70;;
56114;SDS011;41988;53.020;6.576;2022-12-24T06:36:19;55.67;;;6.93;;
56114;SDS011;41988;53.020;6.576;2022-12-24T06:39:05;47.15;;;7.95;;
56114;SDS011;41988;53.020;6.576;2022-12-24T06:41:50;42.10;;;6.80;;
56114;SDS011;41988;53.020;6.576;2022-12-24T06:44:34;47.20;;;7.47;;
56114;SDS011;41988;53.020;6.576;2022-12-24T06:47:19;59.97;;;8.68;;
56114;SDS011;41988;53.020;6.576;2022-12-24T06:50:04;59.08;;;7.07;;
56114;SDS011;41988;53.020;6.576;2022-12-24T06:52:49;47.25;;;7.45;;
56114;SDS011;41988;53.020;6.576;2022-12-24T06:55:33;40.28;;;6.45;;
56114;SDS011;41988;53.020;6.576;2022-12-24T06:58:18;49.13;;;8.10;;
56114;SDS011;41988;53.020;6.576;2022-12-24T07:01:04;64.57;;;9.02;;
56114;SDS011;41988;53.020;6.576;2022-12-24T07:03:49;52.80;;;7.70;;
56114;SDS011;41988;53.020;6.576;2022-12-24T07:06:34;43.83;;;8.70;;
56114;SDS011;41988;53.020;6.576;2022-12-24T07:09:18;63.65;;;8.30;;
56114;SDS011;41988;53.020;6.576;2022-12-24T07:12:03;43.72;;;7.13;;
56114;SDS011;41988;53.020;6.576;2022-12-24T07:14:47;43.20;;;6.47;;
56114;SDS011;41988;53.020;6.576;2022-12-24T07:17:32;45.38;;;7.05;;
56114;SDS011;41988;53.020;6.576;2022-12-24T07:20:16;59.90;;;7.25;;
56114;SDS011;41988;53.020;6.576;2022-12-24T07:23:01;49.95;;;7.53;;
56114;SDS011;41988;53.020;6.576;2022-12-24T07:25:45;37.22;;;5.78;;
56114;SDS011;41988;53.020;6.576;2022-12-24T07:28:30;46.30;;;6.28;;
56114;SDS011;41988;53.020;6.576;2022-12-24T07:31:14;45.70;;;6.60;;
56114;SDS011;41988;53.020;6.576;2022-12-24T07:33:59;58.67;;;9.50;;
56114;SDS011;41988;53.020;6.576;2022-12-24T07:36:43;51.05;;;6.63;;
56114;SDS011;41988;53.020;6.576;2022-12-24T07:39:28;58.90;;;8.45;;
56114;SDS011;41988;53.020;6.576;2022-12-24T07:42:12;49.88;;;7.15;;
56114;SDS011;41988;53.020;6.576;2022-12-24T07:44:57;39.78;;;8.45;;
56114;SDS011;41988;53.020;6.576;2022-12-24T07:47:41;49.35;;;7.00;;
56114;SDS011;41988;53.020;6.576;2022-12-24T07:50:26;41.25;;;7.38;;
56114;SDS011;41988;53.020;6.576;2022-12-24T07:53:10;49.65;;;7.05;;
56114;SDS011;41988;53.020;6.576;2022-12-24T07:55:55;42.22;;;6.13;;
56114;SDS011;41988;53.020;6.576;2022-12-24T07:58:39;52.45;;;9.00;;
56114;SDS011;41988;53.020;6.576;2022-12-24T08:01:24;48.90;;;6.95;;
56114;SDS011;41988;53.020;6.576;2022-12-24T08:04:08;40.50;;;6.78;;
56114;SDS011;41988;53.020;6.576;2022-12-24T08:06:53;42.22;;;5.72;;
56114;SDS011;41988;53.020;6.576;2022-12-24T08:09:37;52.60;;;6.00;;
56114;SDS011;41988;53.020;6.576;2022-12-24T08:12:22;34.70;;;6.20;;
56114;SDS011;41988;53.020;6.576;2022-12-24T08:15:07;46.75;;;6.50;;
56114;SDS011;41988;53.020;6.576;2022-12-24T08:17:51;41.55;;;6.57;;
56114;SDS011;41988;53.020;6.576;2022-12-24T08:20:37;61.50;;;8.75;;
56114;SDS011;41988;53.020;6.576;2022-12-24T08:23:22;41.97;;;6.63;;
56114;SDS011;41988;53.020;6.576;2022-12-24T08:26:08;40.53;;;7.72;;
56114;SDS011;41988;53.020;6.576;2022-12-24T08:28:53;41.10;;;8.23;;
56114;SDS011;41988;53.020;6.576;2022-12-24T08:31:37;41.30;;;7.25;;
56114;SDS011;41988;53.020;6.576;2022-12-24T08:34:22;37.13;;;7.00;;
56114;SDS011;41988;53.020;6.576;2022-12-24T08:37:06;37.78;;;5.72;;
56114;SDS011;41988;53.020;6.576;2022-12-24T08:39:51;42.00;;;5.68;;
56114;SDS011;41988;53.020;6.576;2022-12-24T08:42:35;41.53;;;7.18;;
56114;SDS011;41988;53.020;6.576;2022-12-24T08:45:20;47.85;;;7.50;;
56114;SDS011;41988;53.020;6.576;2022-12-24T08:48:05;39.88;;;6.30;;
56114;SDS011;41988;53.020;6.576;2022-12-24T08:50:50;38.35;;;6.38;;
56114;SDS011;41988;53.020;6.576;2022-12-24T08:53:35;37.30;;;6.50;;
56114;SDS011;41988;53.020;6.576;2022-12-24T08:56:19;42.30;;;7.72;;
56114;SDS011;41988;53.020;6.576;2022-12-24T08:59:04;45.40;;;6.03;;
56114;SDS011;41988;53.020;6.576;2022-12-24T09:01:48;44.40;;;7.07;;
56114;SDS011;41988;53.020;6.576;2022-12-24T09:04:33;45.80;;;7.25;;
56114;SDS011;41988;53.020;6.576;2022-12-24T09:07:17;35.58;;;6.63;;
56114;SDS011;41988;53.020;6.576;2022-12-24T09:10:02;44.50;;;5.30;;
56114;SDS011;41988;53.020;6.576;2022-12-24T09:12:47;46.97;;;5.93;;
56114;SDS011;41988;53.020;6.576;2022-12-24T09:15:32;44.78;;;5.13;;
56114;SDS011;41988;53.020;6.576;2022-12-24T09:18:16;45.88;;;7.63;;
56114;SDS011;41988;53.020;6.576;2022-12-24T09:21:02;39.90;;;7.43;;
56114;SDS011;41988;53.020;6.576;2022-12-24T09:23:50;59.63;;;10.18;;
56114;SDS011;41988;53.020;6.576;2022-12-24T09:26:35;40.17;;;7.43;;
56114;SDS011;41988;53.020;6.576;2022-12-24T09:29:20;49.45;;;8.15;;
56114;SDS011;41988;53.020;6.576;2022-12-24T09:32:08;47.22;;;7.30;;
56114;SDS011;41988;53.020;6.576;2022-12-24T09:34:52;45.85;;;7.75;;
56114;SDS011;41988;53.020;6.576;2022-12-24T09:37:37;42.13;;;7.18;;
56114;SDS011;41988;53.020;6.576;2022-12-24T09:40:23;39.92;;;7.68;;
56114;SDS011;41988;53.020;6.576;2022-12-24T09:43:18;43.83;;;8.27;;
56114;SDS011;41988;53.020;6.576;2022-12-24T09:49:13;37.67;;;6.78;;
56114;SDS011;41988;53.020;6.576;2022-12-24T09:51:58;36.65;;;6.18;;
56114;SDS011;41988;53.020;6.576;2022-12-24T09:54:57;55.50;;;7.00;;
56114;SDS011;41988;53.020;6.576;2022-12-24T09:57:50;43.28;;;7.60;;
56114;SDS011;41988;53.020;6.576;2022-12-24T10:00:36;54.67;;;7.78;;
56114;SDS011;41988;53.020;6.576;2022-12-24T10:03:21;34.22;;;5.03;;
56114;SDS011;41988;53.020;6.576;2022-12-24T10:06:08;27.65;;;5.00;;
56114;SDS011;41988;53.020;6.576;2022-12-24T10:12:53;27.02;;;3.75;;
56114;SDS011;41988;53.020;6.576;2022-12-24T10:15:56;25.10;;;4.47;;
56114;SDS011;41988;53.020;6.576;2022-12-24T10:18:52;20.90;;;4.25;;
56114;SDS011;41988;53.020;6.576;2022-12-24T10:24:36;17.70;;;4.22;;
56114;SDS011;41988;53.020;6.576;2022-12-24T10:27:32;24.25;;;5.28;;
56114;SDS011;41988;53.020;6.576;2022-12-24T10:30:21;19.70;;;3.60;;
56114;SDS011;41988;53.020;6.576;2022-12-24T10:33:11;22.83;;;4.40;;
56114;SDS011;41988;53.020;6.576;2022-12-24T10:35:58;27.73;;;6.18;;
56114;SDS011;41988;53.020;6.576;2022-12-24T10:38:43;24.23;;;4.65;;
56114;SDS011;41988;53.020;6.576;2022-12-24T10:41:28;27.23;;;4.10;;
56114;SDS011;41988;53.020;6.576;2022-12-24T10:44:14;26.02;;;5.18;;
56114;SDS011;41988;53.020;6.576;2022-12-24T10:47:02;28.42;;;7.30;;
56114;SDS011;41988;53.020;6.576;2022-12-24T10:50:03;29.95;;;6.55;;
56114;SDS011;41988;53.020;6.576;2022-12-24T10:53:20;35.45;;;6.78;;
56114;SDS011;41988;53.020;6.576;2022-12-24T10:56:17;39.75;;;6.40;;
56114;SDS011;41988;53.020;6.576;2022-12-24T10:59:03;41.40;;;7.65;;
56114;SDS011;41988;53.020;6.576;2022-12-24T11:01:47;42.75;;;6.85;;
56114;SDS011;41988;53.020;6.576;2022-12-24T11:04:33;38.85;;;6.60;;
56114;SDS011;41988;53.020;6.576;2022-12-24T11:07:30;30.10;;;5.50;;
56114;SDS011;41988;53.020;6.576;2022-12-24T11:10:21;34.50;;;5.65;;
56114;SDS011;41988;53.020;6.576;2022-12-24T11:13:16;40.83;;;6.78;;
56114;SDS011;41988;53.020;6.576;2022-12-24T11:16:09;29.52;;;5.10;;
56114;SDS011;41988;53.020;6.576;2022-12-24T11:19:01;37.85;;;5.72;;
56114;SDS011;41988;53.020;6.576;2022-12-24T11:21:50;32.80;;;7.35;;
56114;SDS011;41988;53.020;6.576;2022-12-24T11:24:42;35.30;;;5.50;;
56114;SDS011;41988;53.020;6.576;2022-12-24T11:27:38;38.60;;;6.20;;
56114;SDS011;41988;53.020;6.576;2022-12-24T11:30:26;41.65;;;7.28;;
56114;SDS011;41988;53.020;6.576;2022-12-24T11:33:16;38.50;;;6.35;;
56114;SDS011;41988;53.020;6.576;2022-12-24T11:36:03;28.27;;;7.30;;
56114;SDS011;41988;53.020;6.576;2022-12-24T11:38:52;28.90;;;4.68;;
56114;SDS011;41988;53.020;6.576;2022-12-24T11:41:38;27.15;;;5.35;;
56114;SDS011;41988;53.020;6.576;2022-12-24T11:44:24;27.50;;;5.03;;
56114;SDS011;41988;53.020;6.576;2022-12-24T11:47:09;35.42;;;5.80;;
56114;SDS011;41988;53.020;6.576;2022-12-24T11:50:10;36.80;;;8.13;;
56114;SDS011;41988;53.020;6.576;2022-12-24T11:53:19;37.63;;;6.65;;
56114;SDS011;41988;53.020;6.576;2022-12-24T11:56:12;34.20;;;5.50;;
56114;SDS011;41988;53.020;6.576;2022-12-24T12:02:26;29.85;;;4.78;;
56114;SDS011;41988;53.020;6.576;2022-12-24T12:05:20;39.53;;;5.47;;
56114;SDS011;41988;53.020;6.576;2022-12-24T12:08:12;32.58;;;4.93;;
56114;SDS011;41988;53.020;6.576;2022-12-24T12:11:00;38.92;;;6.20;;
56114;SDS011;41988;53.020;6.576;2022-12-24T12:13:45;30.85;;;6.15;;
56114;SDS011;41988;53.020;6.576;2022-12-24T12:16:34;35.88;;;6.78;;
56114;SDS011;41988;53.020;6.576;2022-12-24T12:19:43;36.17;;;4.95;;
56114;SDS011;41988;53.020;6.576;2022-12-24T12:28:14;30.70;;;4.45;;
56114;SDS011;41988;53.020;6.576;2022-12-24T12:31:04;28.70;;;5.50;;
56114;SDS011;41988;53.020;6.576;2022-12-24T12:39:53;23.90;;;4.93;;
56114;SDS011;41988;53.020;6.576;2022-12-24T12:42:37;28.20;;;6.00;;
56114;SDS011;41988;53.020;6.576;2022-12-24T12:45:38;28.27;;;5.68;;
56114;SDS011;41988;53.020;6.576;2022-12-24T12:58:02;29.23;;;4.85;;
56114;SDS011;41988;53.020;6.576;2022-12-24T13:00:48;18.98;;;3.65;;
56114;SDS011;41988;53.020;6.576;2022-12-24T13:18:36;30.80;;;5.65;;
56114;SDS011;41988;53.020;6.576;2022-12-24T13:21:34;26.98;;;5.00;;
56114;SDS011;41988;53.020;6.576;2022-12-24T13:24:23;19.42;;;4.85;;
56114;SDS011;41988;53.020;6.576;2022-12-24T13:27:30;22.02;;;3.92;;
56114;SDS011;41988;53.020;6.576;2022-12-24T13:36:19;30.20;;;4.25;;
56114;SDS011;41988;53.020;6.576;2022-12-24T13:39:04;25.83;;;3.72;;
56114;SDS011;41988;53.020;6.576;2022-12-24T13:41:49;21.90;;;4.32;;
56114;SDS011;41988;53.020;6.576;2022-12-24T13:44:34;30.77;;;5.20;;
56114;SDS011;41988;53.020;6.576;2022-12-24T13:47:18;26.85;;;3.60;;
56114;SDS011;41988;53.020;6.576;2022-12-24T13:50:16;26.50;;;5.22;;
56114;SDS011;41988;53.020;6.576;2022-12-24T13:59:08;24.23;;;3.97;;
56114;SDS011;41988;53.020;6.576;2022-12-24T14:01:53;20.50;;;4.78;;
56114;SDS011;41988;53.020;6.576;2022-12-24T14:04:39;28.90;;;5.32;;
56114;SDS011;41988;53.020;6.576;2022-12-24T14:07:24;31.98;;;5.15;;
56114;SDS011;41988;53.020;6.576;2022-12-24T14:10:18;27.98;;;4.15;;
56114;SDS011;41988;53.020;6.576;2022-12-24T14:13:46;25.63;;;5.40;;
56114;SDS011;41988;53.020;6.576;2022-12-24T14:16:40;30.65;;;4.63;;
56114;SDS011;41988;53.020;6.576;2022-12-24T14:19:31;29.25;;;4.03;;
56114;SDS011;41988;53.020;6.576;2022-12-24T14:22:39;17.10;;;3.17;;
56114;SDS011;41988;53.020;6.576;2022-12-24T14:25:28;23.45;;;4.05;;
56114;SDS011;41988;53.020;6.576;2022-12-24T14:28:14;21.33;;;3.97;;
56114;SDS011;41988;53.020;6.576;2022-12-24T14:31:03;20.17;;;3.90;;
56114;SDS011;41988;53.020;6.576;2022-12-24T14:33:48;24.40;;;3.33;;
56114;SDS011;41988;53.020;6.576;2022-12-24T14:36:33;29.75;;;4.72;;
56114;SDS011;41988;53.020;6.576;2022-12-24T14:39:25;19.55;;;4.70;;
56114;SDS011;41988;53.020;6.576;2022-12-24T14:42:25;34.63;;;4.55;;
56114;SDS011;41988;53.020;6.576;2022-12-24T14:45:39;23.23;;;4.90;;
56114;SDS011;41988;53.020;6.576;2022-12-24T14:48:31;23.00;;;4.38;;
56114;SDS011;41988;53.020;6.576;2022-12-24T14:54:25;23.30;;;4.70;;
56114;SDS011;41988;53.020;6.576;2022-12-24T14:57:27;30.50;;;3.72;;
56114;SDS011;41988;53.020;6.576;2022-12-24T15:00:17;23.23;;;3.55;;
56114;SDS011;41988;53.020;6.576;2022-12-24T15:03:07;17.77;;;3.95;;
56114;SDS011;41988;53.020;6.576;2022-12-24T15:06:04;23.63;;;3.60;;
56114;SDS011;41988;53.020;6.576;2022-12-24T15:08:50;29.33;;;5.88;;
56114;SDS011;41988;53.020;6.576;2022-12-24T15:11:34;23.70;;;4.68;;
56114;SDS011;41988;53.020;6.576;2022-12-24T15:14:19;21.63;;;4.88;;
56114;SDS011;41988;53.020;6.576;2022-12-24T15:17:06;20.75;;;4.13;;
56114;SDS011;41988;53.020;6.576;2022-12-24T15:19:51;17.45;;;4.15;;
56114;SDS011;41988;53.020;6.576;2022-12-24T15:22:36;44.25;;;4.50;;
56114;SDS011;41988;53.020;6.576;2022-12-24T15:25:28;19.25;;;3.67;;
56114;SDS011;41988;53.020;6.576;2022-12-24T15:28:21;15.27;;;3.60;;
56114;SDS011;41988;53.020;6.576;2022-12-24T15:31:07;23.15;;;3.85;;
56114;SDS011;41988;53.020;6.576;2022-12-24T15:34:27;14.27;;;3.35;;
56114;SDS011;41988;53.020;6.576;2022-12-24T15:37:26;18.95;;;3.75;;
56114;SDS011;41988;53.020;6.576;2022-12-24T15:40:19;24.92;;;4.43;;
56114;SDS011;41988;53.020;6.576;2022-12-24T15:43:05;13.47;;;3.30;;
56114;SDS011;41988;53.020;6.576;2022-12-24T15:45:49;17.90;;;4.93;;
56114;SDS011;41988;53.020;6.576;2022-12-24T15:48:34;25.13;;;5.60;;
56114;SDS011;41988;53.020;6.576;2022-12-24T15:51:39;18.63;;;3.88;;
56114;SDS011;41988;53.020;6.576;2022-12-24T15:54:23;30.02;;;6.47;;
56114;SDS011;41988;53.020;6.576;2022-12-24T15:57:20;17.88;;;4.25;;
56114;SDS011;41988;53.020;6.576;2022-12-24T16:00:17;23.05;;;4.40;;
56114;SDS011;41988;53.020;6.576;2022-12-24T16:03:11;16.92;;;4.05;;
56114;SDS011;41988;53.020;6.576;2022-12-24T16:06:08;27.23;;;5.72;;
56114;SDS011;41988;53.020;6.576;2022-12-24T16:08:56;17.42;;;3.65;;
56114;SDS011;41988;53.020;6.576;2022-12-24T16:11:41;27.35;;;4.00;;
56114;SDS011;41988;53.020;6.576;2022-12-24T16:14:26;19.63;;;4.00;;
56114;SDS011;41988;53.020;6.576;2022-12-24T16:17:18;19.13;;;4.22;;
56114;SDS011;41988;53.020;6.576;2022-12-24T16:20:15;28.13;;;4.57;;
56114;SDS011;41988;53.020;6.576;2022-12-24T16:23:02;19.10;;;4.72;;
56114;SDS011;41988;53.020;6.576;2022-12-24T16:25:47;25.25;;;5.22;;
56114;SDS011;41988;53.020;6.576;2022-12-24T16:28:32;18.70;;;4.70;;
56114;SDS011;41988;53.020;6.576;2022-12-24T16:31:17;24.75;;;5.10;;
56114;SDS011;41988;53.020;6.576;2022-12-24T16:34:13;32.83;;;7.78;;
56114;SDS011;41988;53.020;6.576;2022-12-24T16:36:58;23.08;;;5.30;;
56114;SDS011;41988;53.020;6.576;2022-12-24T16:39:43;30.27;;;3.97;;
56114;SDS011;41988;53.020;6.576;2022-12-24T16:42:28;22.60;;;4.55;;
56114;SDS011;41988;53.020;6.576;2022-12-24T16:45:31;25.85;;;4.95;;
56114;SDS011;41988;53.020;6.576;2022-12-24T16:48:20;24.88;;;4.65;;
56114;SDS011;41988;53.020;6.576;2022-12-24T16:51:07;16.88;;;4.25;;
56114;SDS011;41988;53.020;6.576;2022-12-24T16:53:51;27.38;;;5.63;;
56114;SDS011;41988;53.020;6.576;2022-12-24T16:56:36;31.98;;;5.38;;
56114;SDS011;41988;53.020;6.576;2022-12-24T16:59:21;20.90;;;4.60;;
56114;SDS011;41988;53.020;6.576;2022-12-24T17:02:06;33.20;;;5.22;;
56114;SDS011;41988;53.020;6.576;2022-12-24T17:04:55;19.92;;;4.28;;
56114;SDS011;41988;53.020;6.576;2022-12-24T17:07:40;24.20;;;5.50;;
56114;SDS011;41988;53.020;6.576;2022-12-24T17:10:25;29.90;;;6.32;;
56114;SDS011;41988;53.020;6.576;2022-12-24T17:13:10;28.42;;;6.05;;
56114;SDS011;41988;53.020;6.576;2022-12-24T17:15:54;32.78;;;6.03;;
56114;SDS011;41988;53.020;6.576;2022-12-24T17:18:39;25.10;;;6.15;;
56114;SDS011;41988;53.020;6.576;2022-12-24T17:21:23;33.13;;;6.43;;
56114;SDS011;41988;53.020;6.576;2022-12-24T17:24:08;29.60;;;5.72;;
56114;SDS011;41988;53.020;6.576;2022-12-24T17:26:52;52.05;;;8.68;;
56114;SDS011;41988;53.020;6.576;2022-12-24T17:29:37;39.65;;;6.07;;
56114;SDS011;41988;53.020;6.576;2022-12-24T17:32:21;24.73;;;5.95;;
56114;SDS011;41988;53.020;6.576;2022-12-24T17:35:06;33.25;;;7.38;;
56114;SDS011;41988;53.020;6.576;2022-12-24T17:37:51;42.67;;;7.75;;
56114;SDS011;41988;53.020;6.576;2022-12-24T17:40:35;30.20;;;6.38;;
56114;SDS011;41988;53.020;6.576;2022-12-24T17:43:22;36.17;;;7.88;;
56114;SDS011;41988;53.020;6.576;2022-12-24T17:46:08;35.50;;;6.45;;
56114;SDS011;41988;53.020;6.576;2022-12-24T17:48:53;39.92;;;5.65;;
56114;SDS011;41988;53.020;6.576;2022-12-24T17:51:38;44.30;;;7.13;;
56114;SDS011;41988;53.020;6.576;2022-12-24T17:54:23;32.95;;;6.57;;
56114;SDS011;41988;53.020;6.576;2022-12-24T17:57:07;112.40;;;46.60;;
56114;SDS011;41988;53.020;6.576;2022-12-24T17:59:52;44.38;;;15.63;;